createdAt,value
2018-12-11T00:01:55.615Z,29.12
2018-12-11T00:04:32.047Z,12.90
2018-12-11T00:07:03.576Z,15.87
2018-12-11T00:09:46.306Z,12.95
2018-12-11T00:12:18.103Z,14.30
2018-12-11T00:14:49.808Z,18.27
2018-12-11T00:17:20.119Z,25.15
2018-12-11T00:19:49.805Z,14.30
2018-12-11T00:22:21.683Z,20.60
2018-12-11T00:24:53.791Z,17.90
2018-12-11T00:27:24.492Z,22.82
2018-12-11T00:29:56.292Z,16.15
2018-12-11T00:32:30.588Z,13.08
2018-12-11T00:35:01.858Z,14.63
2018-12-11T00:37:31.898Z,16.23
2018-12-11T00:40:06.307Z,26.68
2018-12-11T00:42:44.833Z,20.72
2018-12-11T00:45:16.327Z,22.15
2018-12-11T00:47:50.548Z,20.00
2018-12-11T00:53:49.958Z,18.12
2018-12-11T00:59:17.318Z,17.62
2018-12-11T01:01:45.626Z,10.40
2018-12-11T01:04:17.511Z,13.90
2018-12-11T01:06:45.780Z,19.35
2018-12-11T01:09:13.936Z,21.68
2018-12-11T01:11:42.355Z,13.78
2018-12-11T01:14:10.553Z,28.15
2018-12-11T01:16:38.823Z,16.60
2018-12-11T01:19:07.012Z,21.35
2018-12-11T01:21:35.290Z,22.22
2018-12-11T01:24:03.915Z,27.15
2018-12-11T01:26:32.282Z,17.67
2018-12-11T01:29:00.518Z,21.40
2018-12-11T01:31:29.616Z,22.02
2018-12-11T01:33:57.828Z,19.65
2018-12-11T01:36:26.799Z,16.12
2018-12-11T01:39:08.469Z,25.35
2018-12-11T01:41:36.827Z,14.05
2018-12-11T01:44:05.200Z,19.03
2018-12-11T01:46:33.447Z,26.73
2018-12-11T01:49:01.596Z,16.75
2018-12-11T01:51:29.843Z,14.20
2018-12-11T01:54:01.606Z,17.45
2018-12-11T01:59:30.236Z,16.65
2018-12-11T02:01:58.637Z,20.97
2018-12-11T02:04:36.976Z,15.83
2018-12-11T02:07:05.211Z,15.63
2018-12-11T02:12:40.738Z,11.15
2018-12-11T02:15:18.437Z,10.82
2018-12-11T02:17:46.821Z,20.30
2018-12-11T02:20:20.761Z,18.95
2018-12-11T02:22:54.400Z,15.30
2018-12-11T02:25:25.955Z,11.48
2018-12-11T02:27:56.474Z,9.20
2018-12-11T02:30:32.323Z,6.12
2018-12-11T02:33:07.245Z,8.70
2018-12-11T02:35:51.516Z,11.68
2018-12-11T02:38:25.074Z,6.67
2018-12-11T02:41:06.947Z,12.63
2018-12-11T02:49:46.365Z,11.08
2018-12-11T02:52:15.926Z,11.75
2018-12-11T02:55:02.797Z,11.73
2018-12-11T03:01:47.684Z,18.82
2018-12-11T03:07:19.504Z,12.45
2018-12-11T03:09:51.803Z,16.12
2018-12-11T03:17:22.746Z,8.15
2018-12-11T03:20:03.849Z,8.65
2018-12-11T03:22:37.606Z,11.68
2018-12-11T03:25:09.028Z,8.70
2018-12-11T03:27:37.165Z,6.30
2018-12-11T03:30:08.620Z,15.10
2018-12-11T03:32:55.457Z,19.57
2018-12-11T03:38:23.065Z,12.23
2018-12-11T03:40:51.439Z,17.30
2018-12-11T03:43:29.719Z,28.80
2018-12-11T03:46:10.311Z,20.52
2018-12-11T03:48:46.861Z,16.12
2018-12-11T03:51:25.293Z,29.23
2018-12-11T03:53:57.554Z,21.80
2018-12-11T03:56:26.135Z,26.02
2018-12-11T03:58:54.760Z,22.05
2018-12-11T04:01:29.959Z,19.23
2018-12-11T04:03:58.571Z,21.68
2018-12-11T04:06:29.672Z,25.00
2018-12-11T04:09:07.962Z,27.45
2018-12-11T04:11:39.414Z,25.02
2018-12-11T04:14:13.614Z,25.10
2018-12-11T04:16:49.061Z,17.27
2018-12-11T04:19:23.509Z,21.90
2018-12-11T04:21:54.254Z,11.90
2018-12-11T04:24:23.492Z,26.33
2018-12-11T04:26:52.442Z,22.80
2018-12-11T04:29:21.502Z,12.98
2018-12-11T04:31:54.091Z,23.55
2018-12-11T04:34:35.304Z,18.75
2018-12-11T04:37:13.804Z,19.57
2018-12-11T04:39:49.135Z,20.62
2018-12-11T04:42:18.785Z,31.17
2018-12-11T04:44:48.229Z,22.63
2018-12-11T04:47:32.976Z,12.93
2018-12-11T04:50:14.846Z,6.85
2018-12-11T04:52:46.444Z,8.28
2018-12-11T04:55:27.759Z,7.22
2018-12-11T04:57:56.311Z,7.12
2018-12-11T05:00:24.702Z,2.75
2018-12-11T05:02:54.055Z,4.00
2018-12-11T05:05:25.587Z,4.55
2018-12-11T05:07:54.333Z,9.95
2018-12-11T05:10:22.951Z,6.95
2018-12-11T05:13:03.963Z,12.33
2018-12-11T05:15:39.346Z,20.80
2018-12-11T05:18:07.856Z,18.23
2018-12-11T05:20:36.299Z,19.37
2018-12-11T05:23:04.921Z,17.52
2018-12-11T05:25:36.607Z,13.93
2018-12-11T05:28:08.464Z,14.98
2018-12-11T05:30:36.738Z,22.32
2018-12-11T05:33:08.884Z,30.02
2018-12-11T05:35:40.744Z,14.15
2018-12-11T05:38:13.150Z,18.60
2018-12-11T05:40:47.303Z,15.80
2018-12-11T05:43:26.047Z,18.23
2018-12-11T05:45:58.338Z,24.67
2018-12-11T05:48:26.759Z,20.23
2018-12-11T05:50:55.371Z,22.17
2018-12-11T05:53:24.097Z,18.15
2018-12-11T05:55:52.631Z,14.70
2018-12-11T05:58:21.017Z,23.60
2018-12-11T06:00:49.525Z,20.23
2018-12-11T06:03:38.490Z,22.52
2018-12-11T06:06:10.290Z,21.52
2018-12-11T06:08:42.818Z,15.83
2018-12-11T06:14:06.172Z,20.65
2018-12-11T06:19:30.345Z,24.92
2018-12-11T06:24:51.448Z,18.32
2018-12-11T06:27:42.733Z,27.50
2018-12-11T06:30:10.963Z,11.20
2018-12-11T06:32:39.131Z,19.65
2018-12-11T06:35:07.515Z,24.02
2018-12-11T06:37:35.743Z,16.77
2018-12-11T06:40:04.273Z,15.43
2018-12-11T06:42:32.398Z,21.10
2018-12-11T06:45:00.601Z,24.43
2018-12-11T06:47:29.505Z,13.28
2018-12-11T06:49:57.696Z,11.97
2018-12-11T06:52:26.102Z,13.75
2018-12-11T06:54:54.227Z,10.82
2018-12-11T06:57:22.367Z,9.90
2018-12-11T06:59:50.495Z,6.42
2018-12-11T07:02:18.776Z,15.28
2018-12-11T07:04:46.967Z,14.45
2018-12-11T07:07:15.248Z,15.48
2018-12-11T07:09:43.433Z,18.20
2018-12-11T07:12:11.643Z,14.55
2018-12-11T07:14:39.831Z,14.90
2018-12-11T07:17:07.964Z,19.48
2018-12-11T07:19:36.159Z,16.67
2018-12-11T07:22:04.394Z,16.67
2018-12-11T07:24:32.651Z,17.87
2018-12-11T07:27:00.787Z,22.80
2018-12-11T07:29:29.043Z,27.45
2018-12-11T07:31:57.176Z,33.33
2018-12-11T07:34:25.303Z,24.12
2018-12-11T07:36:53.698Z,24.92
2018-12-11T07:39:21.833Z,20.25
2018-12-11T07:41:49.971Z,19.35
2018-12-11T07:44:18.234Z,22.30
2018-12-11T07:46:46.500Z,18.65
2018-12-11T07:49:14.702Z,21.62
2018-12-11T07:51:43.013Z,15.23
2018-12-11T07:54:11.139Z,20.10
2018-12-11T07:56:39.259Z,25.95
2018-12-11T07:59:07.450Z,23.02
2018-12-11T08:01:36.102Z,27.00
2018-12-11T08:04:05.196Z,19.32
2018-12-11T08:06:33.370Z,27.75
2018-12-11T08:09:01.570Z,18.30
2018-12-11T08:11:29.778Z,24.50
2018-12-11T08:13:57.902Z,85.00
2018-12-11T08:16:26.327Z,58.60
2018-12-11T08:18:54.842Z,14.95
2018-12-11T08:21:23.038Z,22.52
2018-12-11T08:23:51.300Z,22.13
2018-12-11T08:26:19.483Z,21.10
2018-12-11T08:28:47.689Z,30.27
2018-12-11T08:31:15.887Z,37.50
2018-12-11T08:33:44.081Z,15.18
2018-12-11T08:36:12.210Z,16.53
2018-12-11T08:38:40.386Z,25.23
2018-12-11T08:41:08.646Z,63.63
2018-12-11T08:43:36.835Z,83.47
2018-12-11T08:46:05.022Z,158.25
2018-12-11T08:48:33.172Z,200.32
2018-12-11T08:51:01.270Z,34.60
2018-12-11T08:53:30.198Z,25.00
2018-12-11T08:55:58.335Z,26.50
2018-12-11T08:58:26.427Z,17.20
2018-12-11T09:00:54.618Z,158.83
2018-12-11T09:03:22.724Z,86.63
2018-12-11T09:05:50.922Z,26.00
2018-12-11T09:08:19.174Z,22.23
2018-12-11T09:10:47.435Z,17.25
2018-12-11T09:13:15.536Z,20.95
2018-12-11T09:15:43.708Z,16.87
2018-12-11T09:18:11.822Z,32.45
2018-12-11T09:20:40.074Z,15.80
2018-12-11T09:23:08.243Z,21.77
2018-12-11T09:25:36.434Z,19.17
2018-12-11T09:28:10.791Z,12.75
2018-12-11T09:30:34.719Z,21.27
2018-12-11T09:33:02.835Z,24.20
2018-12-11T09:35:31.022Z,17.60
2018-12-11T09:37:59.200Z,26.63
2018-12-11T09:40:27.358Z,20.13
2018-12-11T09:42:55.487Z,19.10
2018-12-11T09:45:23.614Z,15.90
2018-12-11T09:47:55.026Z,14.50
2018-12-11T09:50:29.134Z,13.13
2018-12-11T09:52:57.300Z,12.15
2018-12-11T09:55:25.530Z,16.43
2018-12-11T09:57:53.690Z,15.25
2018-12-11T10:00:25.803Z,14.45
2018-12-11T10:02:52.024Z,24.27
2018-12-11T10:05:20.195Z,18.75
2018-12-11T10:07:48.341Z,15.73
2018-12-11T10:10:16.506Z,14.23
2018-12-11T10:12:44.639Z,15.43
2018-12-11T10:15:13.063Z,16.10
2018-12-11T10:17:41.236Z,11.97
2018-12-11T10:20:09.628Z,14.47
2018-12-11T10:22:37.851Z,15.60
2018-12-11T10:25:06.107Z,11.07
2018-12-11T10:27:34.281Z,18.53
2018-12-11T10:30:02.567Z,11.75
2018-12-11T10:32:30.734Z,15.60
2018-12-11T10:34:58.911Z,14.90
2018-12-11T10:37:27.160Z,15.30
2018-12-11T10:39:55.946Z,13.78
2018-12-11T10:42:24.195Z,11.35
2018-12-11T10:44:52.357Z,16.70
2018-12-11T10:47:21.987Z,12.20
2018-12-11T10:49:50.242Z,10.57
2018-12-11T10:52:18.571Z,12.53
2018-12-11T10:54:46.729Z,13.23
2018-12-11T10:57:14.890Z,17.57
2018-12-11T10:59:43.036Z,15.10
2018-12-11T11:02:29.806Z,15.00
2018-12-11T11:04:58.027Z,9.83
2018-12-11T11:07:26.194Z,10.07
2018-12-11T11:09:54.366Z,12.13
2018-12-11T11:12:22.538Z,13.40
2018-12-11T11:14:50.778Z,10.80
2018-12-11T11:17:19.035Z,10.70
2018-12-11T11:25:54.635Z,13.17
2018-12-11T11:58:56.841Z,12.30
2018-12-11T12:01:28.270Z,10.83
2018-12-11T12:06:59.283Z,7.37
2018-12-11T12:09:29.362Z,10.93
2018-12-11T12:11:59.042Z,10.53
2018-12-11T12:14:30.435Z,11.30
2018-12-11T12:19:56.742Z,14.40
2018-12-11T12:25:24.466Z,11.20
2018-12-11T12:30:59.098Z,11.90
2018-12-11T12:33:30.410Z,9.90
2018-12-11T12:35:58.554Z,8.43
2018-12-11T12:38:26.706Z,7.60
2018-12-11T12:40:54.874Z,11.57
2018-12-11T12:43:29.434Z,11.57
2018-12-11T12:46:04.197Z,14.77
2018-12-11T12:48:35.890Z,13.80
2018-12-11T12:51:07.887Z,8.40
2018-12-11T12:53:38.010Z,12.63
2018-12-11T12:56:09.189Z,8.40
2018-12-11T12:58:38.682Z,11.63
2018-12-11T13:01:12.502Z,11.53
2018-12-11T13:03:44.603Z,10.07
2018-12-11T13:06:16.202Z,8.97
2018-12-11T13:11:54.079Z,12.77
2018-12-11T13:20:34.806Z,11.83
2018-12-11T13:23:07.398Z,14.80
2018-12-11T13:28:13.327Z,8.87
2018-12-11T13:34:09.710Z,11.50
2018-12-11T13:36:39.242Z,9.17
2018-12-11T13:39:11.248Z,11.83
2018-12-11T13:41:44.906Z,13.00
2018-12-11T13:44:16.670Z,8.23
2018-12-11T13:46:57.803Z,11.03
2018-12-11T13:52:14.030Z,13.73
2018-12-11T13:54:45.798Z,17.50
2018-12-11T13:57:17.084Z,10.57
2018-12-11T13:59:51.580Z,15.10
2018-12-11T14:02:22.926Z,12.07
2018-12-11T14:04:53.078Z,11.43
2018-12-11T14:07:24.562Z,17.40
2018-12-11T14:10:05.553Z,13.23
2018-12-11T14:12:43.410Z,12.47
2018-12-11T14:15:15.254Z,16.07
2018-12-11T14:17:44.559Z,12.70
2018-12-11T14:20:28.987Z,17.63
2018-12-11T14:23:00.952Z,11.20
2018-12-11T14:25:31.083Z,9.73
2018-12-11T14:28:09.906Z,17.53
2018-12-11T14:30:43.714Z,10.00
2018-12-11T14:39:10.626Z,12.47
2018-12-11T14:41:46.027Z,10.60
2018-12-11T14:44:17.474Z,12.00
2018-12-11T14:46:48.974Z,10.70
2018-12-11T14:49:20.958Z,12.50
2018-12-11T14:51:55.341Z,11.53
2018-12-11T14:54:31.299Z,14.83
2018-12-11T14:57:01.278Z,13.67
2018-12-11T14:59:34.986Z,15.90
2018-12-11T15:02:04.723Z,16.10
2018-12-11T15:04:34.623Z,12.43
2018-12-11T15:07:12.259Z,12.77
2018-12-11T15:09:48.490Z,15.87
2018-12-11T15:12:20.158Z,20.13
2018-12-11T15:14:50.253Z,10.77
2018-12-11T15:17:21.438Z,9.97
2018-12-11T15:19:52.830Z,6.40
2018-12-11T15:25:59.442Z,8.17
2018-12-11T15:28:28.927Z,7.53
2018-12-11T15:31:10.722Z,9.07
2018-12-11T15:33:44.452Z,10.63
2018-12-11T15:36:15.855Z,15.33
2018-12-11T15:38:47.998Z,9.80
2018-12-11T15:45:29.558Z,7.57
2018-12-11T15:48:05.875Z,6.63
2018-12-11T16:00:37.187Z,10.23
2018-12-11T16:06:31.209Z,10.93
2018-12-11T16:09:12.013Z,7.10
2018-12-11T16:11:54.029Z,11.60
2018-12-11T16:14:36.799Z,12.37
2018-12-11T16:20:23.991Z,11.20
2018-12-11T16:23:07.761Z,9.30
2018-12-11T16:25:50.481Z,13.50
2018-12-11T16:28:30.239Z,7.50
2018-12-11T16:31:02.255Z,12.80
2018-12-11T16:33:34.533Z,10.47
2018-12-11T16:36:07.040Z,16.07
2018-12-11T16:38:39.395Z,14.50
2018-12-11T16:41:20.107Z,12.40
2018-12-11T16:43:53.871Z,16.73
2018-12-11T16:46:25.823Z,12.30
2018-12-11T16:49:06.810Z,18.10
2018-12-11T16:51:47.217Z,13.40
2018-12-11T16:54:21.708Z,13.10
2018-12-11T16:56:53.518Z,9.13
2018-12-11T16:59:27.244Z,10.97
2018-12-11T17:01:59.226Z,11.37
2018-12-11T17:04:31.515Z,10.37
2018-12-11T17:07:03.915Z,15.57
2018-12-11T17:09:38.168Z,9.13
2018-12-11T17:12:12.830Z,10.83
2018-12-11T17:14:47.403Z,8.23
2018-12-11T17:17:28.916Z,11.93
2018-12-11T17:20:09.422Z,8.03
2018-12-11T17:22:41.571Z,10.37
2018-12-11T17:25:15.215Z,12.77
2018-12-11T17:27:53.978Z,12.63
2018-12-11T17:33:46.928Z,9.60
2018-12-11T17:36:26.965Z,10.13
2018-12-11T17:38:57.389Z,16.23
2018-12-11T17:41:27.223Z,13.83
2018-12-11T17:43:59.212Z,11.80
2018-12-11T17:46:30.324Z,19.77
2018-12-11T17:49:00.610Z,11.20
2018-12-11T17:51:37.191Z,9.57
2018-12-11T17:54:13.348Z,9.73
2018-12-11T17:59:33.765Z,10.83
2018-12-11T18:02:07.327Z,11.27
2018-12-11T18:04:42.389Z,9.13
2018-12-11T18:15:57.894Z,11.37
2018-12-11T18:24:28.282Z,7.43
2018-12-11T18:27:15.907Z,8.05
2018-12-11T18:33:00.779Z,10.35
2018-12-11T18:38:56.109Z,9.53
2018-12-11T18:44:46.968Z,11.83
2018-12-11T19:57:50.870Z,10.35
2018-12-11T20:00:22.775Z,10.85
2018-12-11T20:05:52.081Z,11.20
2018-12-11T20:33:37.486Z,10.53
2018-12-11T20:39:13.602Z,10.48
2018-12-11T20:41:52.706Z,9.43
2018-12-11T20:44:23.146Z,10.55
2018-12-11T20:47:06.902Z,10.63
2018-12-11T20:49:47.882Z,12.30
2018-12-11T21:01:07.916Z,10.00
2018-12-11T21:09:39.775Z,9.50
2018-12-11T21:12:41.787Z,9.30
2018-12-11T21:18:29.363Z,9.33
2018-12-11T21:29:19.996Z,7.95
2018-12-11T21:34:48.300Z,7.03
2018-12-11T21:37:16.486Z,6.87
2018-12-11T21:39:44.712Z,7.80
2018-12-11T21:42:12.857Z,7.37
2018-12-11T21:44:53.222Z,6.80
2018-12-11T21:47:28.743Z,6.50
2018-12-11T21:50:16.131Z,6.58
2018-12-11T21:52:54.846Z,6.87
2018-12-11T21:58:50.112Z,7.45
2018-12-11T22:04:49.840Z,10.65
2018-12-11T22:59:38.940Z,12.78
2018-12-11T23:05:13.143Z,15.90
2018-12-11T23:07:41.335Z,14.28
2018-12-11T23:10:09.583Z,13.88
2018-12-11T23:12:51.054Z,13.70
2018-12-11T23:15:22.851Z,12.30
2018-12-11T23:17:54.176Z,14.30
2018-12-11T23:20:36.667Z,14.50
2018-12-11T23:23:17.069Z,15.53
2018-12-11T23:25:50.784Z,14.07
2018-12-11T23:28:30.551Z,15.88
2018-12-11T23:31:05.175Z,13.43
2018-12-11T23:36:40.003Z,16.25
2018-12-11T23:39:14.071Z,16.17
2018-12-11T23:41:52.636Z,14.80
2018-12-11T23:44:24.508Z,18.02
2018-12-11T23:46:56.607Z,16.70
2018-12-11T23:49:32.639Z,16.77
2018-12-11T23:52:10.932Z,16.05
2018-12-11T23:54:42.187Z,17.20
2018-12-11T23:57:19.068Z,14.10
2018-12-11T23:59:55.521Z,15.03
